首页
METAR-TAF:

METAR-TAF

机场 :

纽约 / 拉瓜地亞, 紐約州, 美国

拉瓜地亞機場

纬度: 40-46-45N, 经度: 073-52-48W, 海拔: 6米

当前天气观测

该预报发布于16分钟前的23:51 UTC
风速13节,风向西北
温度 -2°C
湿度 63%
气压 1022 hPa
能見度: 16.1公里
多云层高于3200英尺
多云层高于17000英尺
多云层高于25000英尺

METAR: KLGA 172351Z 32013KT 10SM BKN032 BKN170 BKN250 M02/M08 A3017 RMK AO2 SLP217 931000 60000 T10221078 10011 21022 56001

时间: 19:07 (00:07 UTC)

预报

该预报发布于26分钟前的23:41 UTC
预报有效从18日的 00点(UTC)到 19日的 06点(UTC)
风速15节,风向西北,有时为21节阵风
能見度: 10公里
散云层高于2500英尺
散云层高于4000英尺
散云层高于25000英尺
从 18日的 0600点(UTC)
风速12节,风向西北
能見度: 10公里
天空无云
从 18日的 1500点(UTC)
风速15节,风向西北,有时为22节阵风
能見度: 10公里
少量云层高于3000英尺
从 19日的 0000点(UTC)
风速12节,风向西北
能見度: 10公里
天空无云

TAF: KLGA 172341Z 1800/1906 32015G21KT P6SM SCT025 SCT040 SCT250 FM180600 31012KT P6SM SKC FM181500 31015G22KT P6SM FEW030 FM190000 31012KT P6SM SKC

超过4000个机场的气象观测和天气预报(METAR&TAF报告)。

可查询的气象台以黄色和红色小点在地图上表示。

将鼠标移到小点上方,可查看气象台名称。

然后点击查看天气观测和预报。

如需切换地图:点击带黑十字的绿色按钮放大地图;点击带横线的绿色按钮缩小地图;或者点击绿色箭头查看邻近地区的地图。


METAR-TAF: